sensor_id;sensor_type;location;lat;lon;timestamp;P1;durP1;ratioP1;P2;durP2;ratioP2
33188;SDS011;52601;53.070;10.600;2022-08-19T00:00:42;8.35;;;2.85;;
33188;SDS011;52601;53.070;10.600;2022-08-19T00:03:28;2.20;;;1.83;;
33188;SDS011;52601;53.070;10.600;2022-08-19T00:06:14;7.65;;;2.70;;
33188;SDS011;52601;53.070;10.600;2022-08-19T00:09:05;10.90;;;2.90;;
33188;SDS011;52601;53.070;10.600;2022-08-19T00:11:54;4.07;;;2.80;;
33188;SDS011;52601;53.070;10.600;2022-08-19T00:14:41;4.45;;;2.60;;
33188;SDS011;52601;53.070;10.600;2022-08-19T00:17:27;3.53;;;2.47;;
33188;SDS011;52601;53.070;10.600;2022-08-19T00:20:15;6.20;;;3.27;;
33188;SDS011;52601;53.070;10.600;2022-08-19T00:23:02;6.97;;;3.10;;
33188;SDS011;52601;53.070;10.600;2022-08-19T00:25:48;13.35;;;3.30;;
33188;SDS011;52601;53.070;10.600;2022-08-19T00:28:33;4.73;;;2.90;;
33188;SDS011;52601;53.070;10.600;2022-08-19T00:31:20;5.07;;;3.13;;
33188;SDS011;52601;53.070;10.600;2022-08-19T00:34:07;4.10;;;3.00;;
33188;SDS011;52601;53.070;10.600;2022-08-19T00:36:52;7.60;;;3.00;;
33188;SDS011;52601;53.070;10.600;2022-08-19T00:39:37;3.15;;;2.38;;
33188;SDS011;52601;53.070;10.600;2022-08-19T00:42:23;6.47;;;3.30;;
33188;SDS011;52601;53.070;10.600;2022-08-19T00:45:16;6.33;;;2.77;;
33188;SDS011;52601;53.070;10.600;2022-08-19T00:48:03;4.03;;;2.75;;
33188;SDS011;52601;53.070;10.600;2022-08-19T00:50:59;6.97;;;3.53;;
33188;SDS011;52601;53.070;10.600;2022-08-19T00:53:46;8.40;;;3.33;;
33188;SDS011;52601;53.070;10.600;2022-08-19T00:56:31;5.93;;;3.00;;
33188;SDS011;52601;53.070;10.600;2022-08-19T00:59:19;5.45;;;2.85;;
33188;SDS011;52601;53.070;10.600;2022-08-19T01:02:25;5.20;;;2.78;;
33188;SDS011;52601;53.070;10.600;2022-08-19T01:05:23;4.70;;;2.78;;
33188;SDS011;52601;53.070;10.600;2022-08-19T01:08:13;14.40;;;3.20;;
33188;SDS011;52601;53.070;10.600;2022-08-19T01:11:00;4.60;;;2.90;;
33188;SDS011;52601;53.070;10.600;2022-08-19T01:13:46;5.75;;;3.25;;
33188;SDS011;52601;53.070;10.600;2022-08-19T01:16:34;4.65;;;2.95;;
33188;SDS011;52601;53.070;10.600;2022-08-19T01:19:24;7.82;;;2.80;;
33188;SDS011;52601;53.070;10.600;2022-08-19T01:22:16;4.65;;;3.00;;
33188;SDS011;52601;53.070;10.600;2022-08-19T01:25:19;5.15;;;3.35;;
33188;SDS011;52601;53.070;10.600;2022-08-19T01:28:18;6.20;;;3.10;;
33188;SDS011;52601;53.070;10.600;2022-08-19T01:31:19;4.97;;;2.38;;
33188;SDS011;52601;53.070;10.600;2022-08-19T01:34:11;5.13;;;2.85;;
33188;SDS011;52601;53.070;10.600;2022-08-19T01:36:57;3.17;;;2.08;;
33188;SDS011;52601;53.070;10.600;2022-08-19T01:39:42;5.63;;;2.67;;
33188;SDS011;52601;53.070;10.600;2022-08-19T01:42:28;8.15;;;2.83;;
33188;SDS011;52601;53.070;10.600;2022-08-19T01:48:01;8.20;;;2.72;;
33188;SDS011;52601;53.070;10.600;2022-08-19T01:50:47;6.75;;;2.90;;
33188;SDS011;52601;53.070;10.600;2022-08-19T01:53:33;4.97;;;2.67;;
33188;SDS011;52601;53.070;10.600;2022-08-19T01:56:19;4.63;;;2.60;;
33188;SDS011;52601;53.070;10.600;2022-08-19T02:01:56;4.90;;;2.35;;
33188;SDS011;52601;53.070;10.600;2022-08-19T02:04:42;4.22;;;2.35;;
33188;SDS011;52601;53.070;10.600;2022-08-19T02:07:28;3.53;;;2.27;;
33188;SDS011;52601;53.070;10.600;2022-08-19T02:10:18;4.47;;;2.60;;
33188;SDS011;52601;53.070;10.600;2022-08-19T02:13:06;4.05;;;2.47;;
33188;SDS011;52601;53.070;10.600;2022-08-19T02:15:51;4.75;;;2.72;;
33188;SDS011;52601;53.070;10.600;2022-08-19T02:18:37;4.10;;;2.57;;
33188;SDS011;52601;53.070;10.600;2022-08-19T02:21:23;7.63;;;2.33;;
33188;SDS011;52601;53.070;10.600;2022-08-19T02:24:09;5.00;;;3.58;;
33188;SDS011;52601;53.070;10.600;2022-08-19T02:26:55;3.80;;;2.77;;
33188;SDS011;52601;53.070;10.600;2022-08-19T02:29:40;4.37;;;2.70;;
33188;SDS011;52601;53.070;10.600;2022-08-19T02:32:26;7.97;;;2.70;;
33188;SDS011;52601;53.070;10.600;2022-08-19T02:35:12;3.58;;;2.50;;
33188;SDS011;52601;53.070;10.600;2022-08-19T02:37:59;5.80;;;3.03;;
33188;SDS011;52601;53.070;10.600;2022-08-19T02:41:09;4.05;;;2.95;;
33188;SDS011;52601;53.070;10.600;2022-08-19T02:43:59;8.35;;;3.47;;
33188;SDS011;52601;53.070;10.600;2022-08-19T02:47:06;4.78;;;2.58;;
33188;SDS011;52601;53.070;10.600;2022-08-19T02:49:52;6.63;;;2.83;;
33188;SDS011;52601;53.070;10.600;2022-08-19T02:52:38;2.92;;;2.13;;
33188;SDS011;52601;53.070;10.600;2022-08-19T02:55:23;4.93;;;2.92;;
33188;SDS011;52601;53.070;10.600;2022-08-19T02:58:09;5.83;;;2.23;;
33188;SDS011;52601;53.070;10.600;2022-08-19T03:00:55;4.25;;;2.60;;
33188;SDS011;52601;53.070;10.600;2022-08-19T03:03:41;8.07;;;3.05;;
33188;SDS011;52601;53.070;10.600;2022-08-19T03:06:27;5.70;;;2.78;;
33188;SDS011;52601;53.070;10.600;2022-08-19T03:09:14;4.03;;;2.33;;
33188;SDS011;52601;53.070;10.600;2022-08-19T03:12:00;3.97;;;1.88;;
33188;SDS011;52601;53.070;10.600;2022-08-19T03:14:45;2.85;;;1.70;;
33188;SDS011;52601;53.070;10.600;2022-08-19T03:17:31;2.80;;;2.00;;
33188;SDS011;52601;53.070;10.600;2022-08-19T03:20:17;3.55;;;1.90;;
33188;SDS011;52601;53.070;10.600;2022-08-19T03:23:02;4.53;;;2.08;;
33188;SDS011;52601;53.070;10.600;2022-08-19T03:25:48;2.78;;;2.30;;
33188;SDS011;52601;53.070;10.600;2022-08-19T03:28:55;4.45;;;2.58;;
33188;SDS011;52601;53.070;10.600;2022-08-19T03:31:43;7.28;;;2.15;;
33188;SDS011;52601;53.070;10.600;2022-08-19T03:34:37;2.63;;;1.90;;
33188;SDS011;52601;53.070;10.600;2022-08-19T03:37:22;5.65;;;2.20;;
33188;SDS011;52601;53.070;10.600;2022-08-19T03:40:08;13.67;;;2.67;;
33188;SDS011;52601;53.070;10.600;2022-08-19T03:42:58;5.82;;;2.50;;
33188;SDS011;52601;53.070;10.600;2022-08-19T03:45:44;4.33;;;2.80;;
33188;SDS011;52601;53.070;10.600;2022-08-19T03:48:30;2.73;;;2.27;;
33188;SDS011;52601;53.070;10.600;2022-08-19T03:51:26;3.13;;;2.10;;
33188;SDS011;52601;53.070;10.600;2022-08-19T03:54:19;3.55;;;2.45;;
33188;SDS011;52601;53.070;10.600;2022-08-19T03:57:07;3.38;;;2.30;;
33188;SDS011;52601;53.070;10.600;2022-08-19T03:59:53;5.10;;;2.08;;
33188;SDS011;52601;53.070;10.600;2022-08-19T04:02:56;4.05;;;2.38;;
33188;SDS011;52601;53.070;10.600;2022-08-19T04:05:45;4.18;;;2.53;;
33188;SDS011;52601;53.070;10.600;2022-08-19T04:11:18;3.97;;;2.17;;
33188;SDS011;52601;53.070;10.600;2022-08-19T04:14:28;3.20;;;1.75;;
33188;SDS011;52601;53.070;10.600;2022-08-19T04:17:17;3.53;;;2.05;;
33188;SDS011;52601;53.070;10.600;2022-08-19T04:20:03;4.00;;;2.47;;
33188;SDS011;52601;53.070;10.600;2022-08-19T04:22:51;5.40;;;2.83;;
33188;SDS011;52601;53.070;10.600;2022-08-19T04:25:38;4.47;;;2.55;;
33188;SDS011;52601;53.070;10.600;2022-08-19T04:28:24;4.80;;;2.60;;
33188;SDS011;52601;53.070;10.600;2022-08-19T04:34:00;8.32;;;3.22;;
33188;SDS011;52601;53.070;10.600;2022-08-19T04:36:48;5.05;;;3.03;;
33188;SDS011;52601;53.070;10.600;2022-08-19T04:39:35;6.85;;;3.60;;
33188;SDS011;52601;53.070;10.600;2022-08-19T04:42:46;7.78;;;3.28;;
33188;SDS011;52601;53.070;10.600;2022-08-19T04:45:31;4.73;;;3.03;;
33188;SDS011;52601;53.070;10.600;2022-08-19T04:48:28;3.72;;;2.63;;
33188;SDS011;52601;53.070;10.600;2022-08-19T04:51:13;4.15;;;2.40;;
33188;SDS011;52601;53.070;10.600;2022-08-19T04:54:00;4.70;;;3.13;;
33188;SDS011;52601;53.070;10.600;2022-08-19T04:56:51;6.50;;;3.35;;
33188;SDS011;52601;53.070;10.600;2022-08-19T04:59:38;5.25;;;2.92;;
33188;SDS011;52601;53.070;10.600;2022-08-19T05:02:24;6.97;;;3.45;;
33188;SDS011;52601;53.070;10.600;2022-08-19T05:05:10;4.80;;;3.22;;
33188;SDS011;52601;53.070;10.600;2022-08-19T05:07:55;11.75;;;3.38;;
33188;SDS011;52601;53.070;10.600;2022-08-19T05:10:41;5.22;;;3.03;;
33188;SDS011;52601;53.070;10.600;2022-08-19T05:13:27;5.45;;;2.90;;
33188;SDS011;52601;53.070;10.600;2022-08-19T05:16:13;8.75;;;3.55;;
33188;SDS011;52601;53.070;10.600;2022-08-19T05:19:00;5.25;;;2.78;;
33188;SDS011;52601;53.070;10.600;2022-08-19T05:22:04;11.57;;;3.42;;
33188;SDS011;52601;53.070;10.600;2022-08-19T05:25:09;7.40;;;3.40;;
33188;SDS011;52601;53.070;10.600;2022-08-19T05:27:58;5.20;;;2.70;;
33188;SDS011;52601;53.070;10.600;2022-08-19T05:30:44;6.33;;;3.10;;
33188;SDS011;52601;53.070;10.600;2022-08-19T05:33:31;7.00;;;3.22;;
33188;SDS011;52601;53.070;10.600;2022-08-19T05:36:17;4.97;;;3.03;;
33188;SDS011;52601;53.070;10.600;2022-08-19T05:39:05;5.03;;;3.17;;
33188;SDS011;52601;53.070;10.600;2022-08-19T05:42:04;6.03;;;3.08;;
33188;SDS011;52601;53.070;10.600;2022-08-19T05:44:52;6.65;;;4.07;;
33188;SDS011;52601;53.070;10.600;2022-08-19T05:47:37;5.70;;;3.80;;
33188;SDS011;52601;53.070;10.600;2022-08-19T05:50:26;8.68;;;4.20;;
33188;SDS011;52601;53.070;10.600;2022-08-19T05:53:11;7.70;;;4.05;;
33188;SDS011;52601;53.070;10.600;2022-08-19T05:59:16;6.82;;;3.85;;
33188;SDS011;52601;53.070;10.600;2022-08-19T06:02:03;11.15;;;4.63;;
33188;SDS011;52601;53.070;10.600;2022-08-19T06:04:51;8.02;;;4.75;;
33188;SDS011;52601;53.070;10.600;2022-08-19T06:07:37;7.43;;;4.22;;
33188;SDS011;52601;53.070;10.600;2022-08-19T06:10:24;9.07;;;4.63;;
33188;SDS011;52601;53.070;10.600;2022-08-19T06:13:11;9.10;;;4.05;;
33188;SDS011;52601;53.070;10.600;2022-08-19T06:15:56;12.05;;;4.35;;
33188;SDS011;52601;53.070;10.600;2022-08-19T06:18:42;8.90;;;4.30;;
33188;SDS011;52601;53.070;10.600;2022-08-19T06:21:29;7.93;;;4.60;;
33188;SDS011;52601;53.070;10.600;2022-08-19T06:24:16;9.52;;;5.10;;
33188;SDS011;52601;53.070;10.600;2022-08-19T06:27:04;9.82;;;4.15;;
33188;SDS011;52601;53.070;10.600;2022-08-19T06:29:52;8.82;;;3.90;;
33188;SDS011;52601;53.070;10.600;2022-08-19T06:32:38;8.43;;;4.35;;
33188;SDS011;52601;53.070;10.600;2022-08-19T06:35:27;8.50;;;5.00;;
33188;SDS011;52601;53.070;10.600;2022-08-19T06:38:14;12.23;;;5.22;;
33188;SDS011;52601;53.070;10.600;2022-08-19T06:41:01;7.72;;;4.25;;
33188;SDS011;52601;53.070;10.600;2022-08-19T06:43:53;9.77;;;4.20;;
33188;SDS011;52601;53.070;10.600;2022-08-19T06:46:41;12.38;;;5.25;;
33188;SDS011;52601;53.070;10.600;2022-08-19T06:49:27;10.25;;;4.80;;
33188;SDS011;52601;53.070;10.600;2022-08-19T06:52:16;7.25;;;4.55;;
33188;SDS011;52601;53.070;10.600;2022-08-19T06:55:02;9.88;;;4.80;;
33188;SDS011;52601;53.070;10.600;2022-08-19T06:57:51;8.63;;;4.93;;
33188;SDS011;52601;53.070;10.600;2022-08-19T07:00:38;10.05;;;4.80;;
33188;SDS011;52601;53.070;10.600;2022-08-19T07:03:24;7.57;;;4.95;;
33188;SDS011;52601;53.070;10.600;2022-08-19T07:06:10;8.25;;;4.65;;
33188;SDS011;52601;53.070;10.600;2022-08-19T07:09:18;10.05;;;5.03;;
33188;SDS011;52601;53.070;10.600;2022-08-19T07:12:06;11.05;;;5.18;;
33188;SDS011;52601;53.070;10.600;2022-08-19T07:14:53;11.60;;;6.28;;
33188;SDS011;52601;53.070;10.600;2022-08-19T07:17:38;11.50;;;5.32;;
33188;SDS011;52601;53.070;10.600;2022-08-19T07:20:26;13.60;;;5.93;;
33188;SDS011;52601;53.070;10.600;2022-08-19T07:23:13;13.30;;;5.90;;
33188;SDS011;52601;53.070;10.600;2022-08-19T07:26:05;11.75;;;5.53;;
33188;SDS011;52601;53.070;10.600;2022-08-19T07:28:52;12.00;;;5.90;;
33188;SDS011;52601;53.070;10.600;2022-08-19T07:31:39;11.75;;;6.13;;
33188;SDS011;52601;53.070;10.600;2022-08-19T07:34:28;13.07;;;6.15;;
33188;SDS011;52601;53.070;10.600;2022-08-19T07:37:15;13.52;;;7.43;;
33188;SDS011;52601;53.070;10.600;2022-08-19T07:40:01;14.40;;;6.72;;
33188;SDS011;52601;53.070;10.600;2022-08-19T07:42:48;14.32;;;6.00;;
33188;SDS011;52601;53.070;10.600;2022-08-19T07:45:34;15.13;;;6.03;;
33188;SDS011;52601;53.070;10.600;2022-08-19T07:48:19;15.90;;;6.43;;
33188;SDS011;52601;53.070;10.600;2022-08-19T07:51:05;23.23;;;6.30;;
33188;SDS011;52601;53.070;10.600;2022-08-19T07:53:53;12.20;;;5.38;;
33188;SDS011;52601;53.070;10.600;2022-08-19T07:56:38;8.60;;;5.85;;
33188;SDS011;52601;53.070;10.600;2022-08-19T07:59:25;14.07;;;6.72;;
33188;SDS011;52601;53.070;10.600;2022-08-19T08:02:13;16.98;;;6.70;;
33188;SDS011;52601;53.070;10.600;2022-08-19T08:04:59;14.98;;;7.13;;
33188;SDS011;52601;53.070;10.600;2022-08-19T08:08:03;12.55;;;5.75;;
33188;SDS011;52601;53.070;10.600;2022-08-19T08:11:11;17.73;;;6.55;;
33188;SDS011;52601;53.070;10.600;2022-08-19T08:13:59;11.30;;;6.15;;
33188;SDS011;52601;53.070;10.600;2022-08-19T08:16:49;16.70;;;5.80;;
33188;SDS011;52601;53.070;10.600;2022-08-19T08:19:36;12.15;;;5.40;;
33188;SDS011;52601;53.070;10.600;2022-08-19T08:22:22;10.10;;;5.75;;
33188;SDS011;52601;53.070;10.600;2022-08-19T08:25:26;9.50;;;5.07;;
33188;SDS011;52601;53.070;10.600;2022-08-19T08:28:16;9.30;;;5.60;;
33188;SDS011;52601;53.070;10.600;2022-08-19T08:31:02;10.48;;;5.30;;
33188;SDS011;52601;53.070;10.600;2022-08-19T08:33:54;10.25;;;4.72;;
33188;SDS011;52601;53.070;10.600;2022-08-19T08:36:41;10.32;;;5.13;;
33188;SDS011;52601;53.070;10.600;2022-08-19T08:39:30;14.43;;;5.43;;
33188;SDS011;52601;53.070;10.600;2022-08-19T08:42:24;9.93;;;5.20;;
33188;SDS011;52601;53.070;10.600;2022-08-19T08:45:15;9.02;;;4.78;;
33188;SDS011;52601;53.070;10.600;2022-08-19T08:48:07;10.77;;;5.30;;
33188;SDS011;52601;53.070;10.600;2022-08-19T08:51:13;10.75;;;4.85;;
33188;SDS011;52601;53.070;10.600;2022-08-19T08:54:06;8.98;;;5.15;;
33188;SDS011;52601;53.070;10.600;2022-08-19T08:56:55;8.02;;;4.30;;
33188;SDS011;52601;53.070;10.600;2022-08-19T08:59:41;8.00;;;4.05;;
33188;SDS011;52601;53.070;10.600;2022-08-19T09:02:35;10.35;;;5.45;;
33188;SDS011;52601;53.070;10.600;2022-08-19T09:05:21;10.38;;;5.25;;
33188;SDS011;52601;53.070;10.600;2022-08-19T09:08:13;9.40;;;4.22;;
33188;SDS011;52601;53.070;10.600;2022-08-19T09:17:35;7.32;;;4.50;;
33188;SDS011;52601;53.070;10.600;2022-08-19T09:20:22;6.28;;;4.00;;
33188;SDS011;52601;53.070;10.600;2022-08-19T09:23:10;7.75;;;4.55;;
33188;SDS011;52601;53.070;10.600;2022-08-19T09:25:56;10.35;;;5.45;;
33188;SDS011;52601;53.070;10.600;2022-08-19T09:28:43;8.18;;;5.85;;
33188;SDS011;52601;53.070;10.600;2022-08-19T09:31:32;7.90;;;5.50;;
33188;SDS011;52601;53.070;10.600;2022-08-19T09:34:18;12.07;;;6.25;;
33188;SDS011;52601;53.070;10.600;2022-08-19T09:37:06;11.55;;;6.03;;
33188;SDS011;52601;53.070;10.600;2022-08-19T09:39:52;11.45;;;6.57;;
33188;SDS011;52601;53.070;10.600;2022-08-19T09:42:39;12.55;;;6.53;;
33188;SDS011;52601;53.070;10.600;2022-08-19T09:45:37;13.68;;;6.90;;
33188;SDS011;52601;53.070;10.600;2022-08-19T09:48:22;13.38;;;7.90;;
33188;SDS011;52601;53.070;10.600;2022-08-19T09:51:09;12.00;;;7.13;;
33188;SDS011;52601;53.070;10.600;2022-08-19T09:54:01;12.88;;;7.63;;
33188;SDS011;52601;53.070;10.600;2022-08-19T09:56:49;16.38;;;8.45;;
33188;SDS011;52601;53.070;10.600;2022-08-19T09:59:35;14.95;;;8.07;;
33188;SDS011;52601;53.070;10.600;2022-08-19T10:02:20;18.08;;;8.63;;
33188;SDS011;52601;53.070;10.600;2022-08-19T10:05:06;14.05;;;7.65;;
33188;SDS011;52601;53.070;10.600;2022-08-19T10:08:11;16.67;;;8.32;;
33188;SDS011;52601;53.070;10.600;2022-08-19T10:10:58;19.05;;;7.50;;
33188;SDS011;52601;53.070;10.600;2022-08-19T10:14:04;15.02;;;7.40;;
33188;SDS011;52601;53.070;10.600;2022-08-19T10:16:51;15.60;;;7.43;;
33188;SDS011;52601;53.070;10.600;2022-08-19T10:19:37;23.38;;;7.28;;
33188;SDS011;52601;53.070;10.600;2022-08-19T10:22:23;14.18;;;6.90;;
33188;SDS011;52601;53.070;10.600;2022-08-19T10:25:10;13.73;;;5.97;;
33188;SDS011;52601;53.070;10.600;2022-08-19T10:27:57;16.80;;;7.50;;
33188;SDS011;52601;53.070;10.600;2022-08-19T10:30:43;16.17;;;6.63;;
33188;SDS011;52601;53.070;10.600;2022-08-19T10:33:29;14.30;;;6.68;;
33188;SDS011;52601;53.070;10.600;2022-08-19T10:36:36;13.90;;;6.90;;
33188;SDS011;52601;53.070;10.600;2022-08-19T10:39:40;13.20;;;6.88;;
33188;SDS011;52601;53.070;10.600;2022-08-19T10:42:27;14.27;;;6.40;;
33188;SDS011;52601;53.070;10.600;2022-08-19T10:45:13;17.27;;;6.75;;
33188;SDS011;52601;53.070;10.600;2022-08-19T10:47:59;13.63;;;6.32;;
33188;SDS011;52601;53.070;10.600;2022-08-19T10:50:46;13.02;;;6.82;;
33188;SDS011;52601;53.070;10.600;2022-08-19T10:53:50;14.88;;;6.82;;
33188;SDS011;52601;53.070;10.600;2022-08-19T10:56:36;9.65;;;5.18;;
33188;SDS011;52601;53.070;10.600;2022-08-19T10:59:37;10.30;;;5.60;;
33188;SDS011;52601;53.070;10.600;2022-08-19T11:02:23;9.55;;;5.68;;
33188;SDS011;52601;53.070;10.600;2022-08-19T11:05:08;10.43;;;5.95;;
33188;SDS011;52601;53.070;10.600;2022-08-19T11:07:57;12.73;;;5.53;;
33188;SDS011;52601;53.070;10.600;2022-08-19T11:10:46;12.80;;;5.72;;
33188;SDS011;52601;53.070;10.600;2022-08-19T11:13:35;9.70;;;5.60;;
33188;SDS011;52601;53.070;10.600;2022-08-19T11:16:24;11.65;;;5.63;;
33188;SDS011;52601;53.070;10.600;2022-08-19T11:19:13;12.65;;;6.93;;
33188;SDS011;52601;53.070;10.600;2022-08-19T11:22:01;15.88;;;5.82;;
33188;SDS011;52601;53.070;10.600;2022-08-19T11:24:47;15.32;;;7.57;;
33188;SDS011;52601;53.070;10.600;2022-08-19T11:27:33;14.00;;;7.35;;
33188;SDS011;52601;53.070;10.600;2022-08-19T11:30:18;14.32;;;7.28;;
33188;SDS011;52601;53.070;10.600;2022-08-19T11:33:04;16.98;;;6.93;;
33188;SDS011;52601;53.070;10.600;2022-08-19T11:35:49;19.70;;;7.33;;
33188;SDS011;52601;53.070;10.600;2022-08-19T11:38:35;13.85;;;6.90;;
33188;SDS011;52601;53.070;10.600;2022-08-19T11:41:22;16.95;;;7.47;;
33188;SDS011;52601;53.070;10.600;2022-08-19T11:44:08;14.25;;;7.35;;
33188;SDS011;52601;53.070;10.600;2022-08-19T11:46:54;21.65;;;6.68;;
33188;SDS011;52601;53.070;10.600;2022-08-19T11:49:40;15.38;;;7.25;;
33188;SDS011;52601;53.070;10.600;2022-08-19T11:52:26;12.35;;;7.10;;
33188;SDS011;52601;53.070;10.600;2022-08-19T11:55:13;14.55;;;7.05;;
33188;SDS011;52601;53.070;10.600;2022-08-19T11:57:58;17.02;;;7.75;;
33188;SDS011;52601;53.070;10.600;2022-08-19T12:00:44;14.80;;;8.03;;
33188;SDS011;52601;53.070;10.600;2022-08-19T12:03:30;14.67;;;6.57;;
33188;SDS011;52601;53.070;10.600;2022-08-19T12:06:16;15.10;;;7.35;;
33188;SDS011;52601;53.070;10.600;2022-08-19T12:09:05;14.35;;;6.70;;
33188;SDS011;52601;53.070;10.600;2022-08-19T12:11:53;13.20;;;7.07;;
33188;SDS011;52601;53.070;10.600;2022-08-19T12:14:39;18.05;;;7.63;;
33188;SDS011;52601;53.070;10.600;2022-08-19T12:17:25;14.83;;;7.07;;
33188;SDS011;52601;53.070;10.600;2022-08-19T12:20:12;15.13;;;7.22;;
33188;SDS011;52601;53.070;10.600;2022-08-19T12:23:00;16.90;;;7.60;;
33188;SDS011;52601;53.070;10.600;2022-08-19T12:25:47;17.38;;;8.13;;
33188;SDS011;52601;53.070;10.600;2022-08-19T12:28:37;14.68;;;7.72;;
33188;SDS011;52601;53.070;10.600;2022-08-19T12:34:08;15.52;;;6.50;;
33188;SDS011;52601;53.070;10.600;2022-08-19T12:36:54;16.10;;;7.22;;
33188;SDS011;52601;53.070;10.600;2022-08-19T12:39:41;11.73;;;6.78;;
33188;SDS011;52601;53.070;10.600;2022-08-19T12:42:27;10.75;;;6.32;;
33188;SDS011;52601;53.070;10.600;2022-08-19T12:45:13;11.73;;;6.57;;
33188;SDS011;52601;53.070;10.600;2022-08-19T12:47:59;10.52;;;6.50;;
33188;SDS011;52601;53.070;10.600;2022-08-19T12:51:06;14.63;;;7.47;;
33188;SDS011;52601;53.070;10.600;2022-08-19T12:53:54;11.95;;;6.57;;
33188;SDS011;52601;53.070;10.600;2022-08-19T12:56:40;15.48;;;7.05;;
33188;SDS011;52601;53.070;10.600;2022-08-19T12:59:27;15.93;;;7.30;;
33188;SDS011;52601;53.070;10.600;2022-08-19T13:02:13;13.27;;;6.40;;
33188;SDS011;52601;53.070;10.600;2022-08-19T13:04:58;12.65;;;6.53;;
33188;SDS011;52601;53.070;10.600;2022-08-19T13:07:46;13.82;;;7.28;;
33188;SDS011;52601;53.070;10.600;2022-08-19T13:10:32;17.83;;;7.43;;
33188;SDS011;52601;53.070;10.600;2022-08-19T13:13:20;15.68;;;7.82;;
33188;SDS011;52601;53.070;10.600;2022-08-19T13:16:05;16.00;;;7.83;;
33188;SDS011;52601;53.070;10.600;2022-08-19T13:18:51;14.40;;;7.95;;
33188;SDS011;52601;53.070;10.600;2022-08-19T13:21:37;14.65;;;8.88;;
33188;SDS011;52601;53.070;10.600;2022-08-19T13:24:23;12.93;;;8.02;;
33188;SDS011;52601;53.070;10.600;2022-08-19T13:27:17;17.33;;;9.52;;
33188;SDS011;52601;53.070;10.600;2022-08-19T13:30:04;17.27;;;7.28;;
33188;SDS011;52601;53.070;10.600;2022-08-19T13:33:09;19.83;;;9.13;;
33188;SDS011;52601;53.070;10.600;2022-08-19T13:36:01;16.63;;;8.48;;
33188;SDS011;52601;53.070;10.600;2022-08-19T13:38:47;15.20;;;7.57;;
33188;SDS011;52601;53.070;10.600;2022-08-19T13:41:33;14.20;;;8.18;;
33188;SDS011;52601;53.070;10.600;2022-08-19T13:44:19;15.05;;;7.35;;
33188;SDS011;52601;53.070;10.600;2022-08-19T13:47:05;22.70;;;8.88;;
33188;SDS011;52601;53.070;10.600;2022-08-19T13:49:52;21.50;;;8.38;;
33188;SDS011;52601;53.070;10.600;2022-08-19T13:52:38;13.15;;;7.38;;
33188;SDS011;52601;53.070;10.600;2022-08-19T13:55:24;18.00;;;8.07;;
33188;SDS011;52601;53.070;10.600;2022-08-19T14:00:56;15.02;;;7.03;;
33188;SDS011;52601;53.070;10.600;2022-08-19T14:03:43;12.07;;;7.40;;
33188;SDS011;52601;53.070;10.600;2022-08-19T14:06:32;19.38;;;8.00;;
33188;SDS011;52601;53.070;10.600;2022-08-19T14:09:17;14.00;;;7.43;;
33188;SDS011;52601;53.070;10.600;2022-08-19T14:12:03;12.73;;;6.77;;
33188;SDS011;52601;53.070;10.600;2022-08-19T14:14:49;14.50;;;7.95;;
33188;SDS011;52601;53.070;10.600;2022-08-19T14:17:37;13.63;;;7.53;;
33188;SDS011;52601;53.070;10.600;2022-08-19T14:20:24;15.00;;;7.53;;
33188;SDS011;52601;53.070;10.600;2022-08-19T14:26:09;11.88;;;7.47;;
33188;SDS011;52601;53.070;10.600;2022-08-19T14:28:58;9.45;;;6.15;;
33188;SDS011;52601;53.070;10.600;2022-08-19T14:31:44;12.25;;;6.78;;
33188;SDS011;52601;53.070;10.600;2022-08-19T14:34:29;13.80;;;6.35;;
33188;SDS011;52601;53.070;10.600;2022-08-19T14:37:16;11.13;;;6.68;;
33188;SDS011;52601;53.070;10.600;2022-08-19T14:40:02;10.10;;;5.57;;
33188;SDS011;52601;53.070;10.600;2022-08-19T14:42:49;11.48;;;6.38;;
33188;SDS011;52601;53.070;10.600;2022-08-19T14:45:35;14.05;;;6.40;;
33188;SDS011;52601;53.070;10.600;2022-08-19T14:48:25;7.15;;;5.13;;
33188;SDS011;52601;53.070;10.600;2022-08-19T14:51:13;12.65;;;5.88;;
33188;SDS011;52601;53.070;10.600;2022-08-19T14:53:59;8.02;;;4.78;;
33188;SDS011;52601;53.070;10.600;2022-08-19T14:56:44;8.27;;;5.60;;
33188;SDS011;52601;53.070;10.600;2022-08-19T14:59:30;10.88;;;6.25;;
33188;SDS011;52601;53.070;10.600;2022-08-19T15:02:15;8.13;;;5.38;;
33188;SDS011;52601;53.070;10.600;2022-08-19T15:05:19;8.00;;;5.57;;
33188;SDS011;52601;53.070;10.600;2022-08-19T15:08:06;9.90;;;5.40;;
33188;SDS011;52601;53.070;10.600;2022-08-19T15:10:51;7.97;;;5.37;;
33188;SDS011;52601;53.070;10.600;2022-08-19T15:13:38;13.57;;;7.47;;
33188;SDS011;52601;53.070;10.600;2022-08-19T15:16:24;8.35;;;5.90;;
33188;SDS011;52601;53.070;10.600;2022-08-19T15:19:12;9.10;;;6.15;;
33188;SDS011;52601;53.070;10.600;2022-08-19T15:21:58;9.55;;;6.13;;
33188;SDS011;52601;53.070;10.600;2022-08-19T15:24:44;10.52;;;5.88;;
33188;SDS011;52601;53.070;10.600;2022-08-19T15:27:32;7.20;;;5.22;;
33188;SDS011;52601;53.070;10.600;2022-08-19T15:30:20;6.53;;;4.93;;
33188;SDS011;52601;53.070;10.600;2022-08-19T15:33:11;6.40;;;4.55;;
33188;SDS011;52601;53.070;10.600;2022-08-19T15:36:00;8.95;;;5.97;;
33188;SDS011;52601;53.070;10.600;2022-08-19T15:38:45;9.25;;;5.28;;
33188;SDS011;52601;53.070;10.600;2022-08-19T15:41:32;6.35;;;4.68;;
33188;SDS011;52601;53.070;10.600;2022-08-19T15:44:21;5.32;;;3.75;;
33188;SDS011;52601;53.070;10.600;2022-08-19T15:47:06;9.13;;;5.20;;
33188;SDS011;52601;53.070;10.600;2022-08-19T15:49:52;8.13;;;5.60;;
33188;SDS011;52601;53.070;10.600;2022-08-19T15:52:50;7.05;;;5.05;;
33188;SDS011;52601;53.070;10.600;2022-08-19T15:55:43;7.35;;;4.95;;
33188;SDS011;52601;53.070;10.600;2022-08-19T15:58:29;7.22;;;4.20;;
33188;SDS011;52601;53.070;10.600;2022-08-19T16:01:33;8.50;;;5.32;;
33188;SDS011;52601;53.070;10.600;2022-08-19T16:04:37;8.02;;;4.88;;
33188;SDS011;52601;53.070;10.600;2022-08-19T16:07:41;6.10;;;4.60;;
33188;SDS011;52601;53.070;10.600;2022-08-19T16:10:27;7.30;;;5.17;;
33188;SDS011;52601;53.070;10.600;2022-08-19T16:13:13;7.00;;;5.05;;
33188;SDS011;52601;53.070;10.600;2022-08-19T16:15:58;9.27;;;5.20;;
33188;SDS011;52601;53.070;10.600;2022-08-19T16:18:44;7.30;;;4.97;;
33188;SDS011;52601;53.070;10.600;2022-08-19T16:21:32;6.57;;;4.65;;
33188;SDS011;52601;53.070;10.600;2022-08-19T16:24:19;7.95;;;5.35;;
33188;SDS011;52601;53.070;10.600;2022-08-19T16:27:06;7.55;;;5.45;;
33188;SDS011;52601;53.070;10.600;2022-08-19T16:29:52;7.55;;;4.57;;
33188;SDS011;52601;53.070;10.600;2022-08-19T16:32:41;9.02;;;5.57;;
33188;SDS011;52601;53.070;10.600;2022-08-19T16:35:28;11.25;;;5.13;;
33188;SDS011;52601;53.070;10.600;2022-08-19T16:38:13;7.78;;;5.20;;
33188;SDS011;52601;53.070;10.600;2022-08-19T16:40:59;7.37;;;4.90;;
33188;SDS011;52601;53.070;10.600;2022-08-19T16:43:45;8.93;;;5.15;;
33188;SDS011;52601;53.070;10.600;2022-08-19T16:46:31;5.93;;;4.53;;
33188;SDS011;52601;53.070;10.600;2022-08-19T16:49:17;5.43;;;4.22;;
33188;SDS011;52601;53.070;10.600;2022-08-19T16:52:22;8.10;;;5.20;;
33188;SDS011;52601;53.070;10.600;2022-08-19T16:55:11;12.93;;;5.70;;
33188;SDS011;52601;53.070;10.600;2022-08-19T16:57:57;9.38;;;5.68;;
33188;SDS011;52601;53.070;10.600;2022-08-19T17:00:44;7.72;;;5.90;;
33188;SDS011;52601;53.070;10.600;2022-08-19T17:03:31;7.30;;;5.18;;